createdAt,value
2017-03-13T00:00:01.280Z,22.86
2017-03-13T00:01:01.432Z,22.91
2017-03-13T00:02:01.464Z,22.91
2017-03-13T00:03:01.090Z,22.88
2017-03-13T00:04:00.724Z,22.88
2017-03-13T00:05:01.787Z,22.86
2017-03-13T00:06:00.803Z,22.9
2017-03-13T00:07:01.616Z,22.83
2017-03-13T00:08:01.226Z,22.85
2017-03-13T00:09:01.637Z,22.85
2017-03-13T00:10:01.665Z,22.8
2017-03-13T00:11:01.693Z,22.79
2017-03-13T00:12:01.324Z,22.77
2017-03-13T00:13:01.753Z,22.75
2017-03-13T00:14:01.782Z,22.79
2017-03-13T00:15:01.810Z,22.75
2017-03-13T00:16:01.436Z,22.73
2017-03-13T00:17:01.480Z,22.77
2017-03-13T00:18:01.497Z,22.73
2017-03-13T00:19:01.541Z,22.75
2017-03-13T00:20:01.955Z,22.76
2017-03-13T00:21:01.975Z,22.76
2017-03-13T00:22:02.028Z,22.7
2017-03-13T00:23:02.028Z,22.75
2017-03-13T00:24:02.062Z,22.75
2017-03-13T00:25:02.107Z,22.72
2017-03-13T00:26:02.127Z,22.67
2017-03-13T00:27:01.752Z,22.65
2017-03-13T00:28:02.179Z,22.75
2017-03-13T00:29:02.197Z,22.7
2017-03-13T00:30:02.238Z,22.77
2017-03-13T00:31:02.171Z,22.75
2017-03-13T00:32:02.293Z,22.75
2017-03-13T00:33:02.316Z,22.75
2017-03-13T00:34:02.389Z,22.65
2017-03-13T00:35:02.367Z,22.68
2017-03-13T00:36:02.246Z,22.7
2017-03-13T00:37:02.431Z,22.67
2017-03-13T00:38:02.448Z,22.68
2017-03-13T00:39:02.528Z,22.65
2017-03-13T00:40:02.518Z,22.61
2017-03-13T00:41:02.794Z,22.62
2017-03-13T00:42:02.563Z,22.64
2017-03-13T00:43:01.796Z,22.65
2017-03-13T00:44:02.234Z,22.55
2017-03-13T00:45:02.655Z,22.62
2017-03-13T00:46:02.518Z,22.6
2017-03-13T00:47:02.700Z,22.61
2017-03-13T00:48:02.359Z,22.54
2017-03-13T00:49:02.772Z,22.61
2017-03-13T00:50:02.787Z,22.62
2017-03-13T00:51:03.075Z,22.61
2017-03-13T00:52:02.448Z,22.64
2017-03-13T00:53:02.465Z,22.51
2017-03-13T00:54:02.888Z,22.62
2017-03-13T00:55:02.135Z,22.61
2017-03-13T00:56:03.206Z,22.61
2017-03-13T00:57:02.599Z,22.57
2017-03-13T00:58:03.014Z,22.6
2017-03-13T00:59:02.646Z,22.47
2017-03-13T01:00:03.073Z,22.52
2017-03-13T01:01:02.937Z,22.46
2017-03-13T01:02:03.129Z,22.49
2017-03-13T01:03:02.751Z,22.51
2017-03-13T01:04:03.183Z,22.54
2017-03-13T01:05:03.211Z,22.47
2017-03-13T01:06:03.488Z,22.52
2017-03-13T01:07:03.256Z,22.52
2017-03-13T01:08:03.277Z,22.49
2017-03-13T01:09:02.520Z,22.55
2017-03-13T01:10:02.949Z,22.45
2017-03-13T01:11:03.648Z,22.43
2017-03-13T01:12:03.004Z,22.4
2017-03-13T01:13:03.433Z,22.51
2017-03-13T01:14:03.443Z,22.47
2017-03-13T01:15:03.475Z,22.46
2017-03-13T01:16:03.767Z,22.45
2017-03-13T01:17:03.565Z,22.4
2017-03-13T01:18:03.558Z,22.4
2017-03-13T01:19:02.846Z,22.4
2017-03-13T01:20:03.219Z,22.45
2017-03-13T01:21:03.654Z,22.36
2017-03-13T01:22:03.670Z,22.35
2017-03-13T01:23:03.302Z,22.35
2017-03-13T01:24:03.759Z,22.4
2017-03-13T01:25:03.759Z,22.37
2017-03-13T01:26:03.788Z,22.4
2017-03-13T01:27:03.799Z,22.37
2017-03-13T01:28:03.842Z,22.4
2017-03-13T01:29:03.882Z,22.4
2017-03-13T01:30:03.495Z,22.4
2017-03-13T01:31:03.919Z,22.39
2017-03-13T01:32:03.944Z,22.39
2017-03-13T01:33:03.969Z,22.31
2017-03-13T01:34:04.010Z,22.4
2017-03-13T01:35:03.633Z,22.39
2017-03-13T01:36:03.679Z,22.43
2017-03-13T01:37:04.083Z,22.39
2017-03-13T01:38:04.109Z,22.4
2017-03-13T01:39:04.141Z,22.36
2017-03-13T01:40:03.802Z,22.39
2017-03-13T01:41:04.199Z,22.35
2017-03-13T01:42:04.091Z,22.3
2017-03-13T01:43:04.257Z,22.33
2017-03-13T01:44:04.269Z,22.27
2017-03-13T01:45:04.335Z,22.37
2017-03-13T01:46:04.338Z,22.27
2017-03-13T01:47:04.376Z,22.24
2017-03-13T01:48:04.393Z,22.27
2017-03-13T01:49:04.423Z,22.35
2017-03-13T01:50:04.455Z,22.24
2017-03-13T01:51:04.462Z,22.28
2017-03-13T01:52:04.503Z,22.28
2017-03-13T01:53:04.528Z,22.33
2017-03-13T01:54:04.565Z,22.27
2017-03-13T01:55:04.574Z,22.3
2017-03-13T01:56:04.609Z,22.3
2017-03-13T01:57:04.636Z,22.27
2017-03-13T01:58:03.876Z,22.28
2017-03-13T01:59:03.909Z,22.28
2017-03-13T02:00:03.934Z,22.28
2017-03-13T02:01:04.359Z,22.22
2017-03-13T02:02:04.779Z,22.22
2017-03-13T02:03:04.012Z,22.3
2017-03-13T02:04:04.824Z,22.21
2017-03-13T02:05:04.862Z,22.21
2017-03-13T02:06:04.873Z,22.21
2017-03-13T02:07:04.523Z,22.27
2017-03-13T02:08:04.938Z,22.24
2017-03-13T02:09:04.569Z,22.18
2017-03-13T02:10:04.985Z,22.21
2017-03-13T02:11:05.014Z,22.21
2017-03-13T02:12:04.499Z,22.18
2017-03-13T02:13:05.084Z,22.18
2017-03-13T02:14:05.104Z,22.18
2017-03-13T02:15:05.133Z,22.14
2017-03-13T02:16:05.156Z,22.17
2017-03-13T02:17:05.456Z,22.14
2017-03-13T02:18:05.223Z,22.18
2017-03-13T02:19:05.247Z,22.17
2017-03-13T02:20:04.868Z,22.14
2017-03-13T02:21:05.290Z,22.14
2017-03-13T02:22:05.586Z,22.14
2017-03-13T02:23:05.363Z,22.15
2017-03-13T02:24:05.383Z,22.12
2017-03-13T02:25:04.996Z,22.15
2017-03-13T02:26:05.449Z,22.1
2017-03-13T02:27:05.726Z,22.14
2017-03-13T02:28:05.502Z,22.2
2017-03-13T02:29:05.519Z,22.1
2017-03-13T02:30:05.531Z,22.12
2017-03-13T02:31:05.596Z,22.09
2017-03-13T02:32:05.854Z,22.1
2017-03-13T02:33:05.622Z,22.12
2017-03-13T02:34:05.651Z,22.09
2017-03-13T02:35:05.287Z,22
2017-03-13T02:36:05.748Z,22.1
2017-03-13T02:37:05.589Z,22
2017-03-13T02:38:05.371Z,22.05
2017-03-13T02:39:05.791Z,22.07
2017-03-13T02:40:05.823Z,22.1
2017-03-13T02:41:05.845Z,22.1
2017-03-13T02:42:06.129Z,22.07
2017-03-13T02:43:05.102Z,22.06
2017-03-13T02:44:05.915Z,22.05
2017-03-13T02:45:05.943Z,22.06
2017-03-13T02:46:05.985Z,22.06
2017-03-13T02:47:06.249Z,22.02
2017-03-13T02:48:06.037Z,21.99
2017-03-13T02:49:05.275Z,22.02
2017-03-13T02:50:05.707Z,22.07
2017-03-13T02:51:06.131Z,21.99
2017-03-13T02:52:06.387Z,22.03
2017-03-13T02:53:06.189Z,22.09
2017-03-13T02:54:05.794Z,22.06
2017-03-13T02:55:06.244Z,22.12
2017-03-13T02:56:05.857Z,22.1
2017-03-13T02:57:05.755Z,22.05
2017-03-13T02:58:06.308Z,22.03
2017-03-13T02:59:06.322Z,22.03
2017-03-13T03:00:05.971Z,22
2017-03-13T03:01:06.376Z,22.09
2017-03-13T03:02:06.667Z,22
2017-03-13T03:03:06.445Z,22.03
2017-03-13T03:04:06.466Z,22.05
2017-03-13T03:05:06.501Z,21.9
2017-03-13T03:06:06.535Z,22.03
2017-03-13T03:07:06.396Z,22.05
2017-03-13T03:08:06.177Z,22
2017-03-13T03:09:06.213Z,21.98
2017-03-13T03:10:05.850Z,21.94
2017-03-13T03:11:06.673Z,22.02
2017-03-13T03:12:06.583Z,21.98
2017-03-13T03:13:06.706Z,21.92
2017-03-13T03:14:06.731Z,21.88
2017-03-13T03:15:06.370Z,21.86
2017-03-13T03:16:06.798Z,21.83
2017-03-13T03:17:06.682Z,21.92
2017-03-13T03:18:06.856Z,21.91
2017-03-13T03:19:06.489Z,21.92
2017-03-13T03:20:06.918Z,21.83
2017-03-13T03:21:06.938Z,21.88
2017-03-13T03:22:07.226Z,21.92
2017-03-13T03:23:06.990Z,21.91
2017-03-13T03:24:07.016Z,21.9
2017-03-13T03:25:06.642Z,21.91
2017-03-13T03:26:07.072Z,21.88
2017-03-13T03:27:06.709Z,21.88
2017-03-13T03:28:07.143Z,21.83
2017-03-13T03:29:06.756Z,21.79
2017-03-13T03:30:07.180Z,21.86
2017-03-13T03:31:07.214Z,21.88
2017-03-13T03:32:07.229Z,21.86
2017-03-13T03:33:07.276Z,21.84
2017-03-13T03:34:06.892Z,21.9
2017-03-13T03:35:07.337Z,21.88
2017-03-13T03:36:07.350Z,21.88
2017-03-13T03:37:07.365Z,21.86
2017-03-13T03:38:07.394Z,21.9
2017-03-13T03:39:07.420Z,21.82
2017-03-13T03:40:07.063Z,21.9
2017-03-13T03:41:07.489Z,21.92
2017-03-13T03:42:07.506Z,21.79
2017-03-13T03:43:07.530Z,21.79
2017-03-13T03:44:07.560Z,21.79
2017-03-13T03:45:07.613Z,21.9
2017-03-13T03:46:07.609Z,21.83
2017-03-13T03:47:06.845Z,21.82
2017-03-13T03:48:07.270Z,21.83
2017-03-13T03:49:07.725Z,21.83
2017-03-13T03:50:07.736Z,21.86
2017-03-13T03:51:07.740Z,21.88
2017-03-13T03:52:07.773Z,21.82
2017-03-13T03:53:07.818Z,21.86
2017-03-13T03:54:07.823Z,21.82
2017-03-13T03:55:07.855Z,21.84
2017-03-13T03:56:07.879Z,21.88
2017-03-13T03:57:07.926Z,21.84
2017-03-13T03:58:07.542Z,21.83
2017-03-13T03:59:07.582Z,21.83
2017-03-13T04:00:07.212Z,21.8
2017-03-13T04:01:08.008Z,21.75
2017-03-13T04:02:08.061Z,21.84
2017-03-13T04:03:08.320Z,21.82
2017-03-13T04:04:07.710Z,21.77
2017-03-13T04:05:07.747Z,21.82
2017-03-13T04:06:07.775Z,21.79
2017-03-13T04:07:07.796Z,21.74
2017-03-13T04:08:08.462Z,21.72
2017-03-13T04:09:08.230Z,21.75
2017-03-13T04:10:07.871Z,21.83
2017-03-13T04:11:08.295Z,21.75
2017-03-13T04:12:08.333Z,21.75
2017-03-13T04:13:08.203Z,21.75
2017-03-13T04:14:07.580Z,21.74
2017-03-13T04:15:08.002Z,21.77
2017-03-13T04:16:08.042Z,21.75
2017-03-13T04:17:08.458Z,21.69
2017-03-13T04:18:08.345Z,21.74
2017-03-13T04:19:07.713Z,21.75
2017-03-13T04:20:08.154Z,21.69
2017-03-13T04:21:08.551Z,21.71
2017-03-13T04:22:08.192Z,21.72
2017-03-13T04:23:08.480Z,21.71
2017-03-13T04:24:08.642Z,21.69
2017-03-13T04:25:08.670Z,21.71
2017-03-13T04:26:08.703Z,21.71
2017-03-13T04:27:08.727Z,21.62
2017-03-13T04:28:08.602Z,21.74
2017-03-13T04:29:08.785Z,21.68
2017-03-13T04:30:08.026Z,21.65
2017-03-13T04:31:08.042Z,21.67
2017-03-13T04:32:08.860Z,21.71
2017-03-13T04:33:08.757Z,21.67
2017-03-13T04:34:08.513Z,21.67
2017-03-13T04:35:08.568Z,21.61
2017-03-13T04:36:08.958Z,21.69
2017-03-13T04:37:08.583Z,21.69
2017-03-13T04:38:08.883Z,21.64
2017-03-13T04:39:08.658Z,21.65
2017-03-13T04:40:08.677Z,21.67
2017-03-13T04:41:08.697Z,21.54
2017-03-13T04:42:09.151Z,21.64
2017-03-13T04:43:09.015Z,21.69
2017-03-13T04:44:08.795Z,21.56
2017-03-13T04:45:09.217Z,21.62
2017-03-13T04:46:09.237Z,21.64
2017-03-13T04:47:08.473Z,21.59
2017-03-13T04:48:09.554Z,21.61
2017-03-13T04:49:09.312Z,21.59
2017-03-13T04:50:08.960Z,21.62
2017-03-13T04:51:08.981Z,21.58
2017-03-13T04:52:09.430Z,21.59
2017-03-13T04:53:09.675Z,21.58
2017-03-13T04:54:09.055Z,21.56
2017-03-13T04:55:09.084Z,21.61
2017-03-13T04:56:09.502Z,21.59
2017-03-13T04:57:09.142Z,21.53
2017-03-13T04:58:09.842Z,21.59
2017-03-13T04:59:09.587Z,21.52
2017-03-13T05:00:09.616Z,21.52
2017-03-13T05:01:09.649Z,21.53
2017-03-13T05:02:09.662Z,21.58
2017-03-13T05:03:09.546Z,21.58
2017-03-13T05:04:09.727Z,21.54
2017-03-13T05:05:09.756Z,21.52
2017-03-13T05:06:09.384Z,21.49
2017-03-13T05:07:09.805Z,21.53
2017-03-13T05:08:09.704Z,21.61
2017-03-13T05:09:09.458Z,21.52
2017-03-13T05:10:09.496Z,21.49
2017-03-13T05:11:09.916Z,21.47
2017-03-13T05:12:09.940Z,21.49
2017-03-13T05:13:10.224Z,21.49
2017-03-13T05:14:09.991Z,21.46
2017-03-13T05:15:10.027Z,21.5
2017-03-13T05:16:10.043Z,21.5
2017-03-13T05:17:09.677Z,21.46
2017-03-13T05:18:10.373Z,21.53
2017-03-13T05:19:09.742Z,21.5
2017-03-13T05:20:10.146Z,21.49
2017-03-13T05:21:09.779Z,21.52
2017-03-13T05:22:10.208Z,21.56
2017-03-13T05:23:09.451Z,21.53
2017-03-13T05:24:10.270Z,21.56
2017-03-13T05:25:10.287Z,21.54
2017-03-13T05:26:09.942Z,21.58
2017-03-13T05:27:10.340Z,21.59
2017-03-13T05:28:09.977Z,21.59
2017-03-13T05:29:10.002Z,21.58
2017-03-13T05:30:10.027Z,21.65
2017-03-13T05:31:10.442Z,21.65
2017-03-13T05:32:10.489Z,21.62
2017-03-13T05:33:10.513Z,21.59
2017-03-13T05:34:10.141Z,21.59
2017-03-13T05:35:10.566Z,21.68
2017-03-13T05:36:10.195Z,21.65
2017-03-13T05:37:10.607Z,21.69
2017-03-13T05:38:10.245Z,21.75
2017-03-13T05:39:10.261Z,21.72
2017-03-13T05:40:10.690Z,21.75
2017-03-13T05:41:10.326Z,21.77
2017-03-13T05:42:10.738Z,21.72
2017-03-13T05:43:10.769Z,21.8
2017-03-13T05:44:10.821Z,21.79
2017-03-13T05:45:10.833Z,21.86
2017-03-13T05:46:10.870Z,21.8
2017-03-13T05:47:10.471Z,21.9
2017-03-13T05:48:10.910Z,21.86
2017-03-13T05:49:10.533Z,21.88
2017-03-13T05:50:10.570Z,21.83
2017-03-13T05:51:10.611Z,21.9
2017-03-13T05:52:11.031Z,21.83
2017-03-13T05:53:11.040Z,21.98
2017-03-13T05:54:11.060Z,21.88
2017-03-13T05:55:11.108Z,21.92
2017-03-13T05:56:11.116Z,21.94
2017-03-13T05:57:11.166Z,21.9
2017-03-13T05:58:11.175Z,22.03
2017-03-13T05:59:10.808Z,21.96
2017-03-13T06:00:10.829Z,22.03
2017-03-13T06:01:10.865Z,22.06
2017-03-13T06:02:10.894Z,22.1
2017-03-13T06:03:10.523Z,22
2017-03-13T06:04:11.202Z,22.09
2017-03-13T06:05:10.573Z,22.03
2017-03-13T06:06:10.609Z,22.02
2017-03-13T06:07:10.621Z,22.06
2017-03-13T06:08:11.443Z,22.06
2017-03-13T06:09:11.738Z,22.07
2017-03-13T06:10:11.503Z,22.06
2017-03-13T06:11:11.541Z,22.1
2017-03-13T06:12:11.153Z,22.15
2017-03-13T06:13:11.179Z,22.17
2017-03-13T06:14:11.874Z,22.05
2017-03-13T06:15:11.244Z,22.07
2017-03-13T06:16:11.281Z,22.14
2017-03-13T06:17:10.898Z,22.17
2017-03-13T06:18:11.715Z,22.18
2017-03-13T06:19:11.991Z,22.18
2017-03-13T06:20:11.424Z,22.22
2017-03-13T06:21:11.812Z,22.22
2017-03-13T06:22:11.825Z,22.18
2017-03-13T06:23:11.860Z,22.28
2017-03-13T06:24:12.118Z,22.28
2017-03-13T06:25:11.523Z,22.24
2017-03-13T06:26:11.928Z,22.24
2017-03-13T06:27:11.960Z,22.33
2017-03-13T06:28:11.993Z,22.25
2017-03-13T06:29:11.865Z,22.4
2017-03-13T06:30:12.043Z,22.27
2017-03-13T06:31:11.680Z,22.35
2017-03-13T06:32:11.694Z,22.37
2017-03-13T06:33:12.123Z,22.36
2017-03-13T06:34:12.008Z,22.36
2017-03-13T06:35:12.175Z,22.43
2017-03-13T06:36:12.204Z,22.43
2017-03-13T06:37:12.229Z,22.43
2017-03-13T06:38:11.869Z,22.35
2017-03-13T06:39:12.535Z,22.4
2017-03-13T06:40:11.915Z,22.45
2017-03-13T06:41:11.952Z,22.49
2017-03-13T06:42:11.968Z,22.49
2017-03-13T06:43:12.393Z,22.52
2017-03-13T06:44:12.274Z,22.54
2017-03-13T06:45:12.443Z,22.51
2017-03-13T06:46:12.080Z,22.52
2017-03-13T06:47:12.504Z,22.51
2017-03-13T06:48:12.541Z,22.51
2017-03-13T06:49:12.817Z,22.49
2017-03-13T06:50:12.590Z,22.55
2017-03-13T06:51:12.619Z,22.49
2017-03-13T06:52:12.635Z,22.55
2017-03-13T06:53:12.661Z,22.51
2017-03-13T06:54:12.974Z,22.46
2017-03-13T06:55:12.714Z,22.6
2017-03-13T06:56:12.356Z,22.55
2017-03-13T06:57:12.376Z,22.57
2017-03-13T06:58:12.401Z,22.52
2017-03-13T06:59:12.037Z,22.62
2017-03-13T07:00:12.457Z,22.49
2017-03-13T07:01:12.495Z,22.61
2017-03-13T07:02:12.959Z,22.64
2017-03-13T07:03:12.950Z,22.58
2017-03-13T07:04:12.177Z,22.58
2017-03-13T07:05:13.005Z,22.64
2017-03-13T07:06:13.062Z,22.58
2017-03-13T07:07:12.907Z,22.61
2017-03-13T07:08:12.707Z,22.68
2017-03-13T07:09:12.306Z,22.62
2017-03-13T07:10:13.133Z,22.67
2017-03-13T07:11:12.758Z,22.7
2017-03-13T07:12:12.788Z,22.64
2017-03-13T07:13:13.060Z,22.7
2017-03-13T07:14:13.237Z,22.62
2017-03-13T07:15:12.882Z,22.82
2017-03-13T07:16:13.285Z,23.05
2017-03-13T07:17:13.311Z,23.48
2017-03-13T07:18:13.359Z,23.87
2017-03-13T07:19:13.386Z,24.3
2017-03-13T07:20:13.022Z,24.55
2017-03-13T07:21:13.052Z,24.98
2017-03-13T07:22:13.078Z,25.23
2017-03-13T07:23:12.700Z,25.51
2017-03-13T07:24:13.120Z,25.69
2017-03-13T07:25:13.409Z,25.9
2017-03-13T07:26:13.806Z,26.13
2017-03-13T07:27:13.214Z,26.33
2017-03-13T07:28:15.935Z,26.45
2017-03-13T07:29:13.268Z,26.63
2017-03-13T07:30:13.940Z,26.8
2017-03-13T07:31:13.742Z,27.06
2017-03-13T07:32:13.750Z,27.28
2017-03-13T07:33:13.430Z,27.34
2017-03-13T07:34:13.815Z,27.54
2017-03-13T07:35:13.696Z,27.63
2017-03-13T07:36:13.858Z,27.77
2017-03-13T07:37:13.090Z,27.85
2017-03-13T07:38:13.531Z,27.79
2017-03-13T07:39:13.944Z,27.77
2017-03-13T07:40:14.236Z,27.59
2017-03-13T07:41:14.017Z,27.27
2017-03-13T07:42:14.046Z,27.02
2017-03-13T07:43:14.066Z,26.81
2017-03-13T07:44:13.700Z,26.6
2017-03-13T07:45:14.363Z,26.36
2017-03-13T07:46:14.141Z,26.17
2017-03-13T07:47:14.186Z,26.01
2017-03-13T07:48:14.202Z,25.94
2017-03-13T07:49:13.435Z,25.85
2017-03-13T07:50:14.524Z,25.72
2017-03-13T07:51:14.289Z,25.6
2017-03-13T07:52:13.934Z,25.61
2017-03-13T07:53:14.350Z,25.5
2017-03-13T07:54:14.370Z,25.36
2017-03-13T07:55:14.257Z,25.39
2017-03-13T07:56:14.432Z,25.25
2017-03-13T07:57:14.057Z,25.15
2017-03-13T07:58:14.090Z,25.13
2017-03-13T07:59:14.511Z,25.17
2017-03-13T08:00:14.407Z,25.09
2017-03-13T08:01:14.572Z,24.96
2017-03-13T08:02:14.616Z,24.93
2017-03-13T08:03:14.638Z,24.85
2017-03-13T08:04:14.652Z,24.85
2017-03-13T08:05:14.948Z,24.8
2017-03-13T08:06:14.728Z,24.73
2017-03-13T08:07:14.737Z,24.71
2017-03-13T08:08:14.793Z,24.61
2017-03-13T08:09:14.814Z,24.6
2017-03-13T08:10:15.083Z,24.53
2017-03-13T08:11:14.859Z,24.55
2017-03-13T08:12:14.888Z,24.5
2017-03-13T08:13:14.917Z,24.49
2017-03-13T08:14:14.580Z,24.42
2017-03-13T08:15:15.233Z,24.37
2017-03-13T08:16:15.003Z,24.4
2017-03-13T08:17:14.657Z,24.34
2017-03-13T08:18:15.058Z,24.31
2017-03-13T08:19:15.088Z,24.27
2017-03-13T08:20:15.362Z,24.24
2017-03-13T08:21:15.171Z,24.3
2017-03-13T08:22:14.772Z,24.16
2017-03-13T08:23:15.203Z,24.15
2017-03-13T08:24:14.855Z,24.2
2017-03-13T08:25:15.518Z,24.21
2017-03-13T08:26:14.518Z,24.2
2017-03-13T08:27:15.318Z,24.09
2017-03-13T08:28:14.560Z,24.08
2017-03-13T08:29:15.367Z,24.08
2017-03-13T08:30:15.665Z,24.05
2017-03-13T08:31:15.427Z,24.06
2017-03-13T08:32:15.079Z,24.02
2017-03-13T08:33:15.488Z,24.06
2017-03-13T08:34:15.109Z,23.98
2017-03-13T08:35:15.424Z,24.09
2017-03-13T08:36:15.167Z,24
2017-03-13T08:37:15.204Z,24.05
2017-03-13T08:38:15.236Z,23.98
2017-03-13T08:39:15.261Z,24.02
2017-03-13T08:40:15.929Z,24.03
2017-03-13T08:41:15.722Z,24.02
2017-03-13T08:42:15.738Z,23.98
2017-03-13T08:43:15.763Z,23.93
2017-03-13T08:44:15.412Z,23.97
2017-03-13T08:45:15.813Z,23.97
2017-03-13T08:46:15.437Z,23.93
2017-03-13T08:47:15.475Z,23.84
2017-03-13T08:48:15.900Z,23.93
2017-03-13T08:49:15.540Z,23.93
2017-03-13T08:50:15.561Z,24
2017-03-13T08:51:15.586Z,23.91
2017-03-13T08:52:15.618Z,23.98
2017-03-13T08:53:16.035Z,24.02
2017-03-13T08:54:16.080Z,24.13
2017-03-13T08:55:16.091Z,24.25
2017-03-13T08:56:15.757Z,24.47
2017-03-13T08:57:15.766Z,24.65
2017-03-13T08:58:16.199Z,24.87
2017-03-13T08:59:15.436Z,25.15
2017-03-13T09:00:16.249Z,25.4
2017-03-13T09:01:16.273Z,25.47
2017-03-13T09:02:16.293Z,25.67
2017-03-13T09:03:15.939Z,25.8
2017-03-13T09:04:16.005Z,25.92
2017-03-13T09:05:15.976Z,25.99
2017-03-13T09:06:16.405Z,26.23
2017-03-13T09:07:16.032Z,26.2
2017-03-13T09:08:16.082Z,26.39
2017-03-13T09:09:16.503Z,26.44
2017-03-13T09:10:16.540Z,26.48
2017-03-13T09:11:16.569Z,26.37
2017-03-13T09:12:16.581Z,26.32
2017-03-13T09:13:16.218Z,26.3
2017-03-13T09:14:16.669Z,26.09
2017-03-13T09:15:16.264Z,25.98
2017-03-13T09:16:16.964Z,25.87
2017-03-13T09:17:16.729Z,25.75
2017-03-13T09:18:16.349Z,25.61
2017-03-13T09:19:16.390Z,25.6
2017-03-13T09:20:16.403Z,25.38
2017-03-13T09:21:17.092Z,25.38
2017-03-13T09:22:16.465Z,25.23
2017-03-13T09:23:16.098Z,25.2
2017-03-13T09:24:16.518Z,25.15
2017-03-13T09:25:16.569Z,25.08
2017-03-13T09:26:16.832Z,25.13
2017-03-13T09:27:17.013Z,25
2017-03-13T09:28:17.053Z,24.99
2017-03-13T09:29:16.274Z,24.81
2017-03-13T09:30:16.706Z,24.85
2017-03-13T09:31:16.975Z,24.85
2017-03-13T09:32:16.363Z,24.8
2017-03-13T09:33:17.189Z,24.78
2017-03-13T09:34:17.210Z,24.78
2017-03-13T09:35:16.839Z,24.65
2017-03-13T09:36:17.125Z,24.55
2017-03-13T09:37:16.890Z,24.64
2017-03-13T09:38:16.541Z,24.6
2017-03-13T09:39:16.957Z,24.58
2017-03-13T09:40:17.374Z,24.52
2017-03-13T09:41:17.270Z,24.5
2017-03-13T09:42:17.428Z,24.47
2017-03-13T09:43:16.688Z,24.52
2017-03-13T09:44:17.489Z,24.39
2017-03-13T09:45:17.530Z,24.45
2017-03-13T09:46:17.810Z,24.49
2017-03-13T09:47:16.779Z,24.46
2017-03-13T09:48:17.252Z,24.42
2017-03-13T09:49:17.231Z,24.35
2017-03-13T09:50:17.267Z,24.42
2017-03-13T09:51:17.942Z,24.39
2017-03-13T09:52:17.328Z,24.35
2017-03-13T09:53:17.772Z,24.28
2017-03-13T09:54:17.374Z,24.4
2017-03-13T09:55:17.800Z,24.42
2017-03-13T09:56:17.859Z,24.39
2017-03-13T09:57:17.073Z,24.37
2017-03-13T09:58:17.513Z,24.37
2017-03-13T09:59:17.924Z,24.4
2017-03-13T10:00:17.949Z,24.42
2017-03-13T10:01:17.590Z,24.45
2017-03-13T10:02:18.002Z,24.39
2017-03-13T10:03:17.635Z,24.4
2017-03-13T10:04:17.668Z,24.43
2017-03-13T10:05:18.088Z,24.42
2017-03-13T10:06:18.133Z,24.46
2017-03-13T10:07:18.150Z,24.5
2017-03-13T10:08:18.187Z,24.46
2017-03-13T10:09:17.804Z,24.55
2017-03-13T10:10:18.233Z,24.61
2017-03-13T10:11:17.863Z,24.52
2017-03-13T10:12:17.762Z,24.6
2017-03-13T10:13:17.931Z,24.57
2017-03-13T10:14:17.544Z,24.64
2017-03-13T10:15:17.977Z,24.64
2017-03-13T10:16:18.409Z,24.58
2017-03-13T10:17:18.674Z,24.61
2017-03-13T10:18:18.475Z,24.6
2017-03-13T10:19:18.083Z,24.67
2017-03-13T10:20:17.750Z,24.69
2017-03-13T10:21:18.552Z,24.67
2017-03-13T10:22:18.817Z,24.67
2017-03-13T10:23:18.203Z,24.68
2017-03-13T10:24:18.231Z,24.71
2017-03-13T10:25:18.664Z,24.73
2017-03-13T10:26:18.681Z,24.78
2017-03-13T10:27:18.560Z,24.73
2017-03-13T10:28:18.753Z,24.76
2017-03-13T10:29:18.769Z,24.64
2017-03-13T10:30:18.396Z,24.71
2017-03-13T10:31:18.828Z,24.65
2017-03-13T10:32:18.705Z,24.64
2017-03-13T10:33:18.884Z,24.67
2017-03-13T10:34:18.516Z,24.71
2017-03-13T10:35:18.546Z,24.71
2017-03-13T10:36:18.584Z,24.73
2017-03-13T10:37:19.263Z,24.76
2017-03-13T10:38:19.034Z,24.69
2017-03-13T10:39:18.658Z,24.73
2017-03-13T10:40:18.691Z,24.61
2017-03-13T10:41:18.716Z,24.58
2017-03-13T10:42:18.989Z,24.65
2017-03-13T10:43:19.178Z,24.61
2017-03-13T10:44:19.194Z,24.65
2017-03-13T10:45:18.835Z,24.64
2017-03-13T10:46:19.248Z,24.67
2017-03-13T10:47:19.536Z,24.6
2017-03-13T10:48:19.325Z,24.62
2017-03-13T10:49:19.338Z,24.58
2017-03-13T10:50:18.971Z,24.53
2017-03-13T10:51:18.995Z,24.58
2017-03-13T10:52:19.275Z,24.6
2017-03-13T10:53:19.069Z,24.47
2017-03-13T10:54:19.106Z,24.55
2017-03-13T10:55:18.727Z,24.5
2017-03-13T10:56:19.183Z,24.52
2017-03-13T10:57:19.807Z,24.5
2017-03-13T10:58:19.633Z,24.53
2017-03-13T10:59:19.640Z,24.6
2017-03-13T11:00:19.662Z,24.58
2017-03-13T11:01:19.683Z,24.55
2017-03-13T11:02:20.007Z,24.65
2017-03-13T11:03:19.352Z,24.58
2017-03-13T11:04:19.813Z,24.57
2017-03-13T11:05:19.801Z,24.57
2017-03-13T11:06:19.835Z,24.64
2017-03-13T11:07:19.864Z,24.6
2017-03-13T11:08:19.884Z,24.67
2017-03-13T11:09:19.920Z,24.61
2017-03-13T11:10:19.937Z,24.69
2017-03-13T11:11:19.970Z,24.61
2017-03-13T11:12:20.007Z,24.68
2017-03-13T11:13:20.031Z,24.53
2017-03-13T11:14:20.064Z,24.71
2017-03-13T11:15:19.701Z,24.73
2017-03-13T11:16:19.722Z,24.67
2017-03-13T11:17:20.151Z,24.62
2017-03-13T11:18:20.180Z,24.61
2017-03-13T11:19:20.204Z,24.73
2017-03-13T11:20:20.241Z,24.65
2017-03-13T11:21:20.262Z,24.77
2017-03-13T11:22:20.286Z,24.57
2017-03-13T11:23:20.339Z,24.64
2017-03-13T11:24:20.364Z,24.71
2017-03-13T11:25:20.380Z,24.68
2017-03-13T11:26:20.416Z,24.71
2017-03-13T11:27:20.471Z,24.81
2017-03-13T11:28:20.078Z,24.68
2017-03-13T11:29:20.116Z,24.8
2017-03-13T11:30:20.509Z,24.8
2017-03-13T11:31:20.161Z,24.85
2017-03-13T11:32:20.583Z,24.85
2017-03-13T11:33:20.615Z,24.87
2017-03-13T11:34:20.643Z,24.9
2017-03-13T11:35:20.665Z,24.95
2017-03-13T11:36:20.708Z,24.93
2017-03-13T11:37:20.330Z,24.95
2017-03-13T11:38:20.771Z,24.99
2017-03-13T11:39:20.796Z,24.98
2017-03-13T11:40:20.829Z,25.08
2017-03-13T11:41:20.453Z,25.06
2017-03-13T11:42:20.478Z,25.15
2017-03-13T11:43:20.908Z,25.08
2017-03-13T11:44:20.540Z,25.09
2017-03-13T11:45:20.168Z,25.17
2017-03-13T11:46:20.593Z,25.18
2017-03-13T11:47:20.638Z,25.3
2017-03-13T11:48:20.650Z,25.24
2017-03-13T11:49:20.674Z,25.23
2017-03-13T11:50:21.103Z,25.24
2017-03-13T11:51:20.753Z,25.21
2017-03-13T11:52:21.207Z,25.33
2017-03-13T11:53:21.206Z,25.42
2017-03-13T11:54:21.231Z,25.33
2017-03-13T11:55:20.866Z,25.39
2017-03-13T11:56:21.296Z,25.38
2017-03-13T11:57:21.321Z,25.39
2017-03-13T11:58:21.353Z,25.38
2017-03-13T11:59:21.374Z,25.5
2017-03-13T12:00:21.414Z,25.52
2017-03-13T12:01:21.432Z,25.57
2017-03-13T12:02:21.476Z,25.64
2017-03-13T12:03:21.489Z,25.65
2017-03-13T12:04:21.530Z,25.77
2017-03-13T12:05:20.750Z,25.9
2017-03-13T12:06:21.586Z,25.91
2017-03-13T12:07:21.217Z,26.01
2017-03-13T12:08:21.644Z,26.07
2017-03-13T12:09:21.662Z,26.26
2017-03-13T12:10:21.688Z,26.37
2017-03-13T12:11:21.742Z,26.52
2017-03-13T12:12:21.372Z,26.62
2017-03-13T12:13:21.797Z,26.69
2017-03-13T12:14:21.818Z,26.76
2017-03-13T12:15:21.846Z,26.82
2017-03-13T12:16:21.869Z,26.91
2017-03-13T12:17:21.896Z,27.04
2017-03-13T12:18:21.535Z,27.09
2017-03-13T12:19:21.565Z,27.25
2017-03-13T12:20:21.611Z,27.32
2017-03-13T12:21:22.034Z,27.31
2017-03-13T12:22:22.076Z,27.39
2017-03-13T12:23:22.084Z,27.49
2017-03-13T12:24:22.132Z,27.49
2017-03-13T12:25:21.767Z,27.72
2017-03-13T12:26:21.786Z,27.69
2017-03-13T12:27:21.828Z,27.77
2017-03-13T12:28:21.697Z,27.75
2017-03-13T12:29:22.293Z,27.77
2017-03-13T12:30:21.918Z,27.78
2017-03-13T12:31:21.951Z,27.92
2017-03-13T12:32:22.361Z,27.9
2017-03-13T12:33:22.656Z,27.97
2017-03-13T12:34:22.436Z,28.03
2017-03-13T12:35:22.467Z,28.09
2017-03-13T12:36:21.694Z,28.17
2017-03-13T12:37:22.527Z,28.19
2017-03-13T12:38:22.409Z,28.21
2017-03-13T12:39:22.205Z,28.37
2017-03-13T12:40:21.829Z,28.39
2017-03-13T12:41:22.682Z,28.44
2017-03-13T12:42:22.294Z,28.46
2017-03-13T12:43:22.579Z,28.56
2017-03-13T12:44:22.332Z,28.67
2017-03-13T12:45:22.373Z,28.7
2017-03-13T12:46:22.805Z,28.8
2017-03-13T12:47:22.842Z,28.89
2017-03-13T12:48:23.123Z,29.02
2017-03-13T12:49:22.488Z,29.08
2017-03-13T12:50:22.928Z,29.08
2017-03-13T12:51:22.953Z,29.21
2017-03-13T12:54:12.466Z,29.34
2017-03-13T12:54:22.484Z,29.39
2017-03-13T12:55:22.899Z,29.45
2017-03-13T12:56:22.945Z,29.43
2017-03-13T12:57:22.547Z,29.57